Time;durP1;ratioP1;P1;durP2;ratioP2;P2;SDS_P1;SDS_P2;PMS_P1;PMS_P2;Temp;Humidity;BMP_temperature;BMP_pressure;BME280_temperature;BME280_humidity;BME280_pressure;Samples;Min_cycle;Max_cycle;Signal;HPM_P1;HPM_P2
2020/12/13 00:02:23;;;;;;;36.77;26.43;;;11.70;99.90;;;11.99;67.46;100070.72;4926334;28;99116;-61
2020/12/13 00:04:49;;;;;;;33.23;24.07;;;11.70;99.90;;;12.03;67.55;100069.66;4906536;28;97866;-62
2020/12/13 00:07:16;;;;;;;33.23;25.47;;;11.80;99.90;;;12.05;67.01;100075.72;4923060;28;98999;-61
2020/12/13 00:09:42;;;;;;;34.57;25.17;;;11.80;99.90;;;12.07;67.38;100073.84;4924995;28;98808;-61
2020/12/13 00:12:08;;;;;;;30.97;23.23;;;11.80;99.90;;;12.09;67.05;100077.25;4894821;28;102544;-60
2020/12/13 00:14:34;;;;;;;37.77;25.03;;;11.80;99.90;;;12.09;67.43;100079.91;4925383;28;98312;-61
2020/12/13 00:17:00;;;;;;;34.90;24.40;;;11.80;99.90;;;12.11;67.57;100083.31;4903247;28;97948;-60
2020/12/13 00:19:26;;;;;;;29.80;22.87;;;11.80;99.90;;;12.10;67.59;100081.59;4921286;28;100086;-61
2020/12/13 00:21:55;;;;;;;28.03;21.87;;;11.80;99.90;;;12.10;66.73;100084.25;4908072;28;99354;-61
2020/12/13 00:24:22;;;;;;;35.27;24.30;;;11.80;99.90;;;12.09;66.68;100085.19;4919275;28;96920;-60
2020/12/13 00:26:49;;;;;;;31.30;23.20;;;11.80;99.90;;;12.06;66.61;100080.06;4925848;28;97566;-60
2020/12/13 00:29:16;;;;;;;28.37;22.67;;;11.80;99.90;;;12.10;67.02;100080.75;4902135;28;101006;-61
2020/12/13 00:31:42;;;;;;;29.43;21.60;;;11.80;99.90;;;12.09;66.76;100082.53;4907510;28;102722;-60
2020/12/13 00:34:08;;;;;;;29.50;21.07;;;11.80;99.90;;;12.08;66.31;100083.47;4916209;28;96937;-61
2020/12/13 00:36:34;;;;;;;32.17;24.23;;;11.80;99.90;;;12.08;66.43;100093.19;4911077;28;98260;-60
2020/12/13 00:39:00;;;;;;;29.30;20.97;;;11.70;99.90;;;12.04;66.69;100092.50;4908433;28;99340;-60
2020/12/13 00:41:26;;;;;;;29.80;22.20;;;11.70;99.90;;;12.05;66.93;100099.50;4919091;28;97416;-60
2020/12/13 00:43:52;;;;;;;35.07;24.17;;;11.70;99.90;;;12.04;67.35;100103.09;4911456;28;96888;-60
2020/12/13 00:46:18;;;;;;;30.20;22.47;;;11.70;99.90;;;12.05;66.81;100103.94;4922845;28;98630;-61
2020/12/13 00:48:43;;;;;;;31.03;21.67;;;11.70;99.90;;;12.02;66.66;100110.25;4923725;28;99009;-61
2020/12/13 00:51:09;;;;;;;36.83;25.97;;;11.70;99.90;;;12.06;67.52;100105.66;4922369;28;97992;-61
2020/12/13 00:53:35;;;;;;;34.40;23.63;;;11.80;99.90;;;12.07;67.25;100115.28;4905197;28;97485;-61
2020/12/13 00:56:01;;;;;;;37.63;25.73;;;11.70;99.90;;;12.07;67.48;100117.94;4926203;28;98047;-60
2020/12/13 00:58:27;;;;;;;38.23;26.10;;;11.80;99.90;;;12.06;67.17;100116.22;4899242;28;98802;-61
2020/12/13 01:00:53;;;;;;;38.87;27.33;;;11.80;99.90;;;12.06;67.74;100106.50;4906433;28;114068;-60
2020/12/13 01:03:19;;;;;;;34.67;24.77;;;11.80;99.90;;;12.10;67.46;100125.69;4891724;28;101777;-60
2020/12/13 01:05:45;;;;;;;38.50;25.93;;;11.80;99.90;;;12.11;67.83;100130.91;4883990;28;97332;-61
2020/12/13 01:08:10;;;;;;;33.87;24.40;;;11.80;99.90;;;12.09;67.09;100126.63;4908705;28;99177;-60
2020/12/13 01:10:36;;;;;;;34.50;24.83;;;11.80;99.90;;;12.10;67.45;100139.78;4917559;28;98884;-61
2020/12/13 01:13:02;;;;;;;36.67;26.30;;;11.80;99.90;;;12.11;67.76;100149.41;4923711;28;99026;-60
2020/12/13 01:15:28;;;;;;;38.43;27.17;;;11.80;99.90;;;12.17;67.40;100146.47;4910544;28;97288;-60
2020/12/13 01:17:54;;;;;;;46.40;33.67;;;11.90;99.90;;;12.15;67.55;100156.28;4904402;28;99369;-60
2020/12/13 01:20:20;;;;;;;44.53;29.83;;;11.90;99.90;;;12.13;67.81;100160.75;4925778;28;99279;-61
2020/12/13 01:22:46;;;;;;;37.83;26.47;;;11.90;99.90;;;12.12;67.48;100145.84;4902741;28;98681;-61
2020/12/13 01:25:12;;;;;;;35.00;25.20;;;11.90;99.90;;;12.15;67.00;100155.38;4905613;28;96845;-61
2020/12/13 01:27:38;;;;;;;36.97;24.00;;;11.90;99.90;;;12.20;66.98;100156.91;4908875;28;99825;-60
2020/12/13 01:30:07;;;;;;;38.07;26.73;;;11.90;99.90;;;12.21;66.42;100160.41;4902894;28;99481;-60
2020/12/13 01:32:51;;;;;;;34.83;24.00;;;11.90;99.90;;;12.19;66.67;100165.75;4923665;28;98451;-61
2020/12/13 01:35:17;;;;;;;39.20;24.40;;;11.90;99.90;;;12.16;67.10;100160.63;4905656;28;98143;-61
2020/12/13 01:37:43;;;;;;;37.83;24.80;;;11.90;99.90;;;12.19;67.35;100165.75;4920215;28;99418;-61
2020/12/13 01:40:09;;;;;;;34.60;24.00;;;12.00;99.90;;;12.25;66.91;100169.00;4894463;28;112844;-60
2020/12/13 01:42:43;;;;;;;33.23;23.97;;;12.00;99.90;;;12.25;66.89;100169.00;4928094;28;97494;-60
2020/12/13 01:45:18;;;;;;;38.90;24.80;;;12.00;99.90;;;12.26;66.54;100170.72;4905979;28;103127;-60
2020/12/13 01:47:46;;;;;;;32.80;22.40;;;12.00;99.90;;;12.22;66.69;100170.03;4918626;28;102531;-61
2020/12/13 01:50:27;;;;;;;34.20;22.67;;;12.00;99.90;;;12.18;67.09;100179.91;4905783;28;98363;-61
2020/12/13 01:53:12;;;;;;;31.37;22.77;;;11.90;99.90;;;12.21;67.05;100185.03;4917549;28;97686;-60
2020/12/13 01:55:39;;;;;;;33.20;23.03;;;12.00;99.90;;;12.33;65.12;100183.59;4893545;28;100049;-60
2020/12/13 01:58:08;;;;;;;33.57;22.60;;;12.00;99.90;;;12.37;65.89;100184.28;4921912;28;99511;-60
2020/12/13 02:00:34;;;;;;;34.97;24.30;;;12.10;99.90;;;12.32;66.06;100191.59;4897375;28;99214;-60
2020/12/13 02:03:02;;;;;;;36.27;26.00;;;12.00;99.90;;;12.29;66.50;100197.00;4906449;28;96814;-60
2020/12/13 02:05:29;;;;;;;33.27;24.63;;;12.00;99.90;;;12.30;64.61;100193.47;4907103;28;98765;-60
2020/12/13 02:07:56;;;;;;;27.77;21.00;;;12.00;99.90;;;12.31;65.75;100190.75;4907952;28;99150;-60
2020/12/13 02:10:22;;;;;;;30.63;22.67;;;12.00;99.90;;;12.28;66.57;100195.31;4908768;28;100580;-60
2020/12/13 02:12:48;;;;;;;32.13;22.57;;;12.00;99.90;;;12.31;66.24;100203.97;4919733;28;102092;-60
2020/12/13 02:15:14;;;;;;;32.33;21.33;;;12.00;99.90;;;12.30;66.53;100204.03;4927469;28;98529;-60
2020/12/13 02:17:41;;;;;;;32.07;23.73;;;12.00;99.90;;;12.29;66.75;100208.44;4904232;28;98985;-61
2020/12/13 02:20:14;;;;;;;32.23;23.20;;;12.00;99.90;;;12.31;66.59;100213.69;4925153;28;99412;-61
2020/12/13 02:22:42;;;;;;;32.43;23.87;;;12.10;99.90;;;12.30;66.53;100214.63;4913241;28;99075;-60
2020/12/13 02:25:15;;;;;;;31.47;22.30;;;12.10;99.90;;;12.25;66.78;100221.91;4925004;28;97979;-60
2020/12/13 02:27:41;;;;;;;30.80;23.10;;;12.00;99.90;;;12.23;66.69;100214.06;4889180;28;104629;-60
2020/12/13 02:30:09;;;;;;;34.63;22.97;;;12.00;99.90;;;12.24;66.59;100222.84;4922657;28;98633;-60
2020/12/13 02:32:35;;;;;;;31.00;22.97;;;12.00;99.90;;;12.21;67.13;100232.63;4895708;28;100370;-60
2020/12/13 02:35:03;;;;;;;32.77;23.40;;;12.00;99.90;;;12.24;67.02;100225.47;4912860;28;97772;-61
2020/12/13 02:37:29;;;;;;;31.97;23.20;;;12.00;99.90;;;12.23;66.94;100234.34;4929302;28;99768;-61
2020/12/13 02:39:55;;;;;;;29.43;22.73;;;12.00;99.90;;;12.24;66.99;100246.63;4914689;28;102238;-61
2020/12/13 02:42:21;;;;;;;30.47;23.00;;;12.00;99.90;;;12.27;66.44;100246.47;4909727;28;97742;-61
2020/12/13 02:44:47;;;;;;;29.80;22.37;;;12.00;99.90;;;12.25;66.42;100251.84;4938146;28;98219;-60
2020/12/13 02:47:13;;;;;;;28.77;22.77;;;12.00;99.90;;;12.32;64.48;100257.72;4920433;28;99909;-60
2020/12/13 02:49:41;;;;;;;29.00;21.47;;;12.00;99.90;;;12.53;62.83;100251.34;4911937;28;100939;-60
2020/12/13 02:52:08;;;;;;;28.60;22.73;;;12.20;99.90;;;12.55;61.79;100260.06;4920320;28;97623;-61
2020/12/13 02:54:34;;;;;;;33.53;22.60;;;12.20;99.90;;;12.49;63.68;100257.72;4910528;28;102496;-60
2020/12/13 02:57:00;;;;;;;28.70;22.50;;;12.20;99.90;;;12.43;65.40;100263.31;4921668;28;100075;-64
2020/12/13 02:59:26;;;;;;;29.67;21.23;;;12.20;99.90;;;12.65;61.59;100258.66;4887581;28;116622;-60
2020/12/13 03:01:51;;;;;;;27.50;21.50;;;12.30;99.90;;;12.78;62.98;100256.25;4925435;28;98380;-60
2020/12/13 03:04:17;;;;;;;29.80;22.00;;;12.50;99.90;;;12.61;64.68;100262.41;4904928;28;99097;-61
2020/12/13 03:06:43;;;;;;;28.63;22.20;;;12.40;99.90;;;12.92;59.65;100263.50;4924161;28;101952;-60
2020/12/13 03:09:09;;;;;;;27.47;21.63;;;12.50;99.90;;;13.03;59.90;100269.09;4906002;28;106100;-61
2020/12/13 03:11:35;;;;;;;26.73;21.23;;;12.70;99.90;;;13.15;60.13;100272.88;4933321;28;98456;-60
2020/12/13 03:14:00;;;;;;;25.07;20.27;;;12.80;99.90;;;13.26;60.54;100268.78;4923513;28;98836;-60
2020/12/13 03:16:26;;;;;;;25.43;21.37;;;13.00;99.90;;;13.38;58.59;100281.38;4902267;28;100697;-60
2020/12/13 03:18:52;;;;;;;25.00;21.13;;;13.10;99.90;;;13.44;58.14;100279.31;4923683;28;98960;-60
2020/12/13 03:21:18;;;;;;;23.93;19.47;;;13.10;99.90;;;13.43;58.27;100277.59;4887933;28;98890;-62
2020/12/13 03:23:44;;;;;;;22.83;20.30;;;13.10;99.90;;;13.49;60.08;100282.59;4925208;28;97945;-60
2020/12/13 03:26:09;;;;;;;22.40;20.00;;;13.20;99.90;;;13.35;59.81;100278.88;4922616;28;99107;-60
2020/12/13 03:28:35;;;;;;;25.90;20.37;;;13.00;99.90;;;13.45;59.98;100286.31;4901932;28;99213;-62
2020/12/13 03:31:01;;;;;;;24.53;20.07;;;13.20;99.90;;;13.35;60.59;100297.44;4911976;28;98101;-59
2020/12/13 03:33:27;;;;;;;23.37;20.50;;;13.10;99.90;;;13.13;60.00;100286.19;4909033;28;98785;-61
2020/12/13 03:35:53;;;;;;;21.47;19.03;;;12.80;99.90;;;13.30;60.34;100294.16;4903690;28;105691;-61
2020/12/13 03:38:18;;;;;;;23.40;19.93;;;13.00;99.90;;;13.10;59.98;100300.47;4917622;28;99632;-61
2020/12/13 03:40:44;;;;;;;22.13;18.97;;;12.80;99.90;;;13.48;57.87;100302.94;4910941;28;98475;-61
2020/12/13 03:43:10;;;;;;;22.30;18.70;;;13.10;99.90;;;13.51;57.25;100299.28;4919651;28;97957;-61
2020/12/13 03:45:36;;;;;;;22.60;20.07;;;13.20;99.90;;;13.17;61.30;100302.81;4904331;28;98947;-61
2020/12/13 03:48:03;;;;;;;22.73;20.23;;;13.00;99.90;;;13.08;60.75;100304.13;4902781;28;98420;-60
2020/12/13 03:50:38;;;;;;;28.37;20.70;;;12.80;99.90;;;13.28;60.38;100301.31;4926416;28;96991;-61
2020/12/13 03:53:10;;;;;;;24.50;20.13;;;13.00;99.90;;;13.53;58.47;100306.19;4905393;28;99673;-60
2020/12/13 03:55:37;;;;;;;24.87;20.77;;;13.20;99.90;;;13.25;60.52;100305.94;4922566;28;99469;-62
2020/12/13 03:58:04;;;;;;;25.60;19.30;;;13.00;99.90;;;13.61;56.90;100319.03;4902463;28;99059;-59
2020/12/13 04:00:31;;;;;;;21.93;18.93;;;13.30;99.90;;;13.80;56.36;100317.09;4922420;28;97522;-60
2020/12/13 04:02:57;;;;;;;24.97;19.87;;;13.50;99.90;;;13.87;56.92;100315.81;4903295;28;98766;-59
2020/12/13 04:05:24;;;;;;;23.97;19.80;;;13.60;99.90;;;13.99;55.86;100320.47;4920978;28;98849;-61
2020/12/13 04:07:51;;;;;;;21.77;19.47;;;13.80;99.90;;;13.90;58.11;100315.69;4916135;28;100383;-60
2020/12/13 04:10:18;;;;;;;23.67;20.60;;;13.80;99.90;;;13.83;57.63;100314.28;4917658;28;98923;-62
2020/12/13 04:12:45;;;;;;;23.63;20.93;;;13.60;99.90;;;13.79;57.22;100322.50;4901570;28;96769;-61
2020/12/13 04:15:11;;;;;;;22.40;20.03;;;13.40;99.90;;;13.46;59.93;100325.16;4904937;28;100319;-62
2020/12/13 04:17:37;;;;;;;23.73;20.57;;;13.10;99.90;;;13.55;59.70;100329.97;4891066;28;100894;-61
2020/12/13 04:20:08;;;;;;;25.80;20.50;;;13.30;99.90;;;13.42;58.10;100328.88;4921934;28;97413;-61
2020/12/13 04:22:34;;;;;;;23.80;19.87;;;13.00;99.90;;;13.25;61.65;100333.28;4920998;28;97678;-62
2020/12/13 04:25:00;;;;;;;25.20;20.03;;;13.00;99.90;;;13.37;58.29;100337.09;4909961;28;97507;-61
2020/12/13 04:27:26;;;;;;;23.77;20.67;;;12.90;99.90;;;13.38;60.62;100339.66;4918407;28;97359;-62
2020/12/13 04:29:52;;;;;;;24.43;20.20;;;13.10;99.90;;;13.18;61.82;100347.78;4913537;28;97718;-62
2020/12/13 04:32:18;;;;;;;23.93;19.63;;;12.80;99.90;;;13.11;61.97;100346.34;4899377;28;98234;-60
2020/12/13 04:34:44;;;;;;;24.23;19.60;;;12.80;99.90;;;13.08;61.93;100341.19;4907756;28;104478;-60
2020/12/13 04:37:10;;;;;;;24.10;18.87;;;12.80;99.90;;;13.04;59.96;100347.59;4921021;28;97352;-60
2020/12/13 04:39:36;;;;;;;23.50;18.77;;;12.60;99.90;;;12.92;62.57;100350.84;4909350;28;98917;-60
2020/12/13 04:42:03;;;;;;;22.97;18.73;;;12.60;99.90;;;13.02;61.82;100349.47;4924626;28;98355;-60
2020/12/13 04:44:30;;;;;;;22.80;18.53;;;12.70;99.90;;;12.89;62.71;100351.00;4903261;28;97904;-60
2020/12/13 04:47:05;;;;;;;21.93;18.33;;;12.60;99.90;;;12.84;63.13;100347.72;4922467;28;101584;-60
2020/12/13 04:49:35;;;;;;;21.13;17.10;;;12.50;99.90;;;12.75;63.13;100343.75;4886707;28;98728;-60
2020/12/13 04:52:04;;;;;;;23.63;16.67;;;12.50;99.90;;;12.60;63.94;100355.94;4925229;28;98086;-60
2020/12/13 04:54:31;;;;;;;22.67;17.40;;;12.30;99.90;;;12.65;61.85;100359.22;4908088;28;99087;-60
2020/12/13 04:56:58;;;;;;;20.77;16.83;;;12.30;99.90;;;12.64;63.65;100357.50;4920603;28;98912;-60
2020/12/13 04:59:26;;;;;;;18.90;15.50;;;12.30;99.90;;;12.89;60.29;100361.59;4907686;28;97880;-60
2020/12/13 05:01:56;;;;;;;20.00;15.47;;;12.50;99.90;;;12.86;62.29;100364.38;4902466;28;102671;-60
2020/12/13 05:04:22;;;;;;;19.87;16.13;;;12.50;99.90;;;12.84;62.68;100368.91;4925317;28;98385;-60
2020/12/13 05:06:48;;;;;;;23.00;17.73;;;12.60;99.90;;;12.67;63.90;100367.09;4890212;28;119758;-60
2020/12/13 05:09:15;;;;;;;17.53;15.60;;;12.40;99.90;;;12.81;60.62;100380.50;4912195;28;97348;-60
2020/12/13 05:11:44;;;;;;;21.60;17.40;;;12.40;99.90;;;12.62;63.62;100379.69;4899946;28;97094;-61
2020/12/13 05:14:10;;;;;;;22.27;17.53;;;12.40;99.90;;;12.61;62.94;100373.53;4919590;28;97852;-60
2020/12/13 05:16:36;;;;;;;22.93;18.10;;;12.30;99.90;;;12.51;64.05;100377.56;4918074;28;100238;-60
2020/12/13 05:19:05;;;;;;;21.87;17.73;;;12.30;99.90;;;12.39;65.11;100384.28;4928259;28;97106;-60
2020/12/13 05:21:31;;;;;;;21.63;17.20;;;12.10;99.90;;;12.32;64.78;100388.16;4899514;28;96872;-61
2020/12/13 05:23:57;;;;;;;21.37;17.57;;;12.10;99.90;;;12.28;64.84;100404.22;4911061;28;98881;-60
2020/12/13 05:26:23;;;;;;;18.57;16.00;;;12.00;99.90;;;12.19;65.54;100403.72;4908681;28;99054;-60
2020/12/13 05:28:52;;;;;;;18.13;15.73;;;11.90;99.90;;;12.17;65.61;100405.59;4916906;28;97085;-64
2020/12/13 05:31:23;;;;;;;17.53;15.73;;;12.00;99.90;;;12.27;63.48;100406.00;4919848;28;97086;-60
2020/12/13 05:33:56;;;;;;;17.87;15.97;;;11.90;99.90;;;12.40;64.52;100411.59;4923674;28;99678;-60
2020/12/13 05:36:25;;;;;;;18.90;16.20;;;12.10;99.90;;;12.27;64.92;100407.78;4934572;28;103377;-60
2020/12/13 05:38:56;;;;;;;16.53;14.77;;;12.00;99.90;;;12.18;65.39;100403.81;4918583;28;97046;-61
2020/12/13 05:41:28;;;;;;;15.77;13.83;;;12.00;99.90;;;12.09;65.73;100412.16;4932025;28;96994;-60
2020/12/13 05:51:54;;;;;;;15.63;14.00;;;12.60;99.90;;;12.84;61.88;100425.34;4937881;28;97693;-61
2020/12/13 05:56:59;;;;;;;15.57;13.40;;;12.70;99.90;;;12.78;62.56;100439.72;4935109;28;97371;-60
2020/12/13 05:59:27;;;;;;;14.57;13.07;;;12.50;99.90;;;12.91;59.47;100436.50;4914038;28;99423;-61
2020/12/13 06:01:55;;;;;;;10.80;9.53;;;12.50;99.90;;;13.15;59.55;100435.28;4933309;28;97509;-61
2020/12/13 06:04:29;;;;;;;16.00;13.33;;;12.90;99.90;;;12.81;62.26;100436.94;4933619;28;99808;-61
2020/12/13 06:07:02;;;;;;;15.97;14.27;;;12.60;99.90;;;12.83;62.58;100434.22;4934348;28;97045;-60
2020/12/13 06:09:28;;;;;;;15.07;13.50;;;12.60;99.90;;;12.81;61.99;100438.72;4897410;28;96878;-60
2020/12/13 06:12:04;;;;;;;13.40;11.53;;;12.50;99.90;;;13.26;58.28;100438.28;4931015;28;99767;-60
2020/12/13 06:14:30;;;;;;;14.03;11.80;;;13.00;99.90;;;13.42;57.64;100440.16;4918390;28;100196;-61
2020/12/13 06:17:01;;;;;;;14.17;12.60;;;13.20;99.90;;;13.13;60.47;100445.09;4922778;28;98253;-60
2020/12/13 06:19:30;;;;;;;13.73;12.33;;;13.00;99.90;;;12.99;61.42;100451.06;4903807;28;100020;-60
2020/12/13 06:21:59;;;;;;;15.10;11.60;;;12.80;99.90;;;13.41;57.81;100444.59;4931594;28;96970;-61
2020/12/13 06:24:26;;;;;;;12.40;11.10;;;13.20;99.90;;;13.48;57.56;100455.75;4937620;28;99834;-60
2020/12/13 06:26:53;;;;;;;13.27;10.83;;;13.20;99.90;;;13.53;57.74;100459.88;4933241;28;97017;-60
2020/12/13 06:29:24;;;;;;;14.17;12.30;;;13.30;99.90;;;13.74;56.45;100459.69;4917826;28;96939;-60
2020/12/13 06:31:52;;;;;;;11.53;10.43;;;13.50;99.90;;;13.97;55.41;100465.53;4911135;28;96842;-61
2020/12/13 06:34:19;;;;;;;12.50;11.20;;;13.80;99.90;;;14.00;55.24;100470.66;4927737;28;99525;-60
2020/12/13 06:36:46;;;;;;;13.20;10.77;;;13.90;99.90;;;14.11;55.21;100471.91;4928690;28;97016;-61
2020/12/13 06:39:14;;;;;;;12.97;11.67;;;14.00;99.90;;;14.21;54.86;100478.44;4935580;28;97744;-60
2020/12/13 06:41:44;;;;;;;12.40;11.03;;;14.10;99.90;;;14.39;53.35;100481.91;4902591;28;97092;-60
2020/12/13 06:44:11;;;;;;;17.63;12.50;;;14.40;99.90;;;14.28;54.82;100487.78;4918437;28;104253;-60
2020/12/13 06:46:41;;;;;;;13.33;10.50;;;14.20;99.90;;;14.56;53.23;100485.38;4912258;28;98729;-60
2020/12/13 06:49:10;;;;;;;12.03;10.83;;;14.50;99.90;;;14.49;53.74;100486.66;4909718;28;97116;-60
2020/12/13 06:51:41;;;;;;;12.33;10.77;;;14.40;99.90;;;14.48;53.82;100487.59;4902967;28;97576;-60
2020/12/13 06:54:10;;;;;;;14.60;11.87;;;14.30;99.90;;;14.25;55.22;100503.84;4921559;28;97651;-61
2020/12/13 06:56:36;;;;;;;18.13;11.27;;;14.10;99.90;;;14.38;54.06;100496.97;4922447;28;98158;-61
2020/12/13 06:59:05;;;;;;;14.47;12.30;;;14.20;99.90;;;13.92;55.80;100502.06;4932531;28;97009;-61
2020/12/13 07:01:39;;;;;;;18.63;13.10;;;13.70;99.90;;;13.82;56.65;100513.19;4902761;28;97055;-60
2020/12/13 07:04:23;;;;;;;17.43;13.20;;;13.60;99.90;;;13.75;56.45;100507.38;4913233;28;100522;-61
2020/12/13 07:06:57;;;;;;;20.53;13.70;;;13.50;99.90;;;13.46;57.88;100510.63;4933638;28;97023;-60
2020/12/13 07:09:23;;;;;;;13.37;11.50;;;13.20;99.90;;;13.60;56.49;100510.78;4924981;28;97580;-61
2020/12/13 07:11:51;;;;;;;14.27;12.20;;;13.30;99.90;;;13.66;56.15;100513.13;4923913;28;97267;-60
2020/12/13 07:14:19;;;;;;;16.97;13.23;;;13.40;99.90;;;13.52;57.03;100516.47;4917147;28;99385;-60
2020/12/13 07:16:47;;;;;;;17.87;12.20;;;13.30;99.90;;;13.57;56.69;100513.56;4917484;28;97761;-60
2020/12/13 07:19:16;;;;;;;17.63;12.20;;;13.20;99.90;;;13.87;55.31;100519.09;4922119;28;96922;-61
2020/12/13 07:22:04;;;;;;;16.83;12.33;;;13.60;99.90;;;13.78;55.55;100523.09;4978910;23;98400;-59
2020/12/13 07:24:30;;;;;;;19.57;13.80;;;13.70;99.90;;;13.54;57.08;100526.97;4917803;28;99586;-59
2020/12/13 07:26:57;;;;;;;18.17;13.77;;;13.30;99.90;;;13.06;59.01;100526.63;4905719;28;100097;-60
2020/12/13 07:29:23;;;;;;;17.33;13.43;;;12.80;99.90;;;12.91;59.51;100531.81;4916367;28;101465;-61
2020/12/13 07:31:49;;;;;;;17.00;12.93;;;12.60;99.90;;;13.10;58.13;100536.13;4917555;28;99245;-61
2020/12/13 07:34:14;;;;;;;21.80;12.97;;;12.80;99.90;;;13.00;58.84;100534.00;4902301;28;100368;-61
2020/12/13 07:36:41;;;;;;;18.33;13.83;;;12.70;99.90;;;12.86;59.11;100536.44;4913435;28;105269;-61
2020/12/13 07:39:11;;;;;;;16.47;12.77;;;12.60;99.90;;;12.95;58.38;100544.81;4887843;28;97167;-59
2020/12/13 07:41:37;;;;;;;19.63;14.03;;;12.50;99.90;;;12.76;59.45;100547.47;4900310;28;98897;-61
2020/12/13 07:44:11;;;;;;;19.77;14.30;;;12.50;99.90;;;12.65;60.23;100557.69;4892259;28;119799;-61
2020/12/13 07:46:38;;;;;;;18.80;14.60;;;12.40;99.90;;;12.48;61.00;100557.59;4931275;28;97231;-59
2020/12/13 07:49:17;;;;;;;21.57;14.70;;;12.20;99.90;;;12.35;62.08;100561.72;4887986;28;97261;-61
2020/12/13 07:51:47;;;;;;;20.90;15.13;;;12.00;99.90;;;12.21;62.52;100563.19;4916789;28;96528;-61
2020/12/13 07:54:23;;;;;;;15.70;14.00;;;11.90;99.90;;;12.15;62.87;100566.09;4895238;28;100167;-60
2020/12/13 07:57:17;;;;;;;21.00;14.00;;;11.80;99.90;;;12.11;63.23;100564.50;4895306;28;98838;-61
2020/12/13 07:59:43;;;;;;;19.43;14.80;;;11.80;99.90;;;12.05;63.33;100564.78;4874489;28;97323;-62
2020/12/13 08:02:11;;;;;;;20.30;15.80;;;11.70;99.90;;;12.00;63.62;100566.72;4902082;28;97111;-60
2020/12/13 08:04:40;;;;;;;18.10;14.40;;;11.70;99.90;;;11.93;63.90;100570.56;4892859;28;99263;-61
2020/12/13 08:07:10;;;;;;;20.73;15.37;;;11.60;99.90;;;11.89;64.24;100569.00;4908133;28;97291;-61
2020/12/13 08:09:42;;;;;;;20.93;14.90;;;11.60;99.90;;;11.86;64.17;100577.03;4879546;28;100027;-61
2020/12/13 08:12:12;;;;;;;17.30;14.70;;;11.50;99.90;;;11.81;63.57;100582.53;4912469;28;98188;-61
2020/12/13 08:14:38;;;;;;;20.37;15.23;;;11.50;99.90;;;11.79;64.17;100572.94;4883551;28;99570;-61
2020/12/13 08:17:04;;;;;;;16.03;13.50;;;11.50;99.90;;;11.90;63.02;100576.84;4911924;28;98682;-61
2020/12/13 08:19:40;;;;;;;23.67;16.97;;;11.50;99.90;;;11.85;64.70;100585.88;4896869;28;99801;-61
2020/12/13 08:22:14;;;;;;;22.43;16.90;;;11.50;99.90;;;11.82;64.69;100583.38;4894410;28;96775;-60
2020/12/13 08:24:41;;;;;;;21.67;15.93;;;11.50;99.90;;;11.79;64.12;100581.72;4894174;28;98702;-60
2020/12/13 08:27:13;;;;;;;22.17;16.97;;;11.50;99.90;;;11.79;64.42;100594.09;4891802;28;99467;-60
2020/12/13 08:29:42;;;;;;;18.10;15.03;;;11.50;99.90;;;11.79;65.25;100596.72;4912352;28;101228;-61
2020/12/13 08:32:13;;;;;;;21.43;15.93;;;11.50;99.90;;;11.79;65.00;100599.38;4894880;28;98747;-65
2020/12/13 08:34:39;;;;;;;23.33;15.97;;;11.50;99.90;;;11.80;64.99;100601.94;4895591;28;104174;-61
2020/12/13 08:37:05;;;;;;;20.63;16.20;;;11.50;99.90;;;11.78;65.13;100602.91;4894019;28;98876;-60
2020/12/13 08:39:34;;;;;;;23.67;17.53;;;11.50;99.90;;;11.77;65.19;100609.13;4911384;28;96952;-61
2020/12/13 08:42:03;;;;;;;22.67;17.37;;;11.50;99.90;;;11.77;64.60;100611.75;4897700;28;97049;-61
2020/12/13 08:44:38;;;;;;;22.23;16.33;;;11.50;99.90;;;11.75;64.94;100613.59;4910910;28;98852;-58
2020/12/13 08:47:09;;;;;;;22.63;16.97;;;11.50;99.90;;;11.74;65.53;100611.91;4897122;28;98845;-61
2020/12/13 08:49:40;;;;;;;23.27;16.53;;;11.50;99.90;;;11.74;64.73;100611.91;4888295;28;96954;-60
2020/12/13 08:52:22;;;;;;;20.70;15.43;;;11.50;99.90;;;11.77;64.69;100619.69;4896572;28;102669;-60
2020/12/13 08:54:51;;;;;;;23.17;15.10;;;11.50;99.90;;;11.71;65.30;100617.28;4910799;28;99603;-60
2020/12/13 08:57:45;;;;;;;24.23;14.70;;;11.50;99.90;;;11.72;64.54;100624.31;4883928;28;105368;-60
2020/12/13 09:00:16;;;;;;;24.70;14.43;;;11.50;99.90;;;11.68;64.44;100626.19;4905346;28;97005;-61
2020/12/13 09:03:04;;;;;;;20.80;13.20;;;11.50;99.90;;;11.73;64.29;100631.31;4881665;28;96832;-58
2020/12/13 09:05:34;;;;;;;18.13;12.37;;;11.50;99.90;;;11.68;63.93;100643.84;4899573;28;97165;-61
2020/12/13 09:08:01;;;;;;;18.57;12.70;;;11.40;99.90;;;11.73;63.78;100642.75;4879232;28;100714;-61
2020/12/13 09:10:37;;;;;;;18.47;12.60;;;11.40;99.90;;;11.76;63.88;100652.31;4918904;28;96870;-61
2020/12/13 09:13:07;;;;;;;19.80;13.67;;;11.50;99.90;;;11.76;63.73;100653.19;4895861;28;97449;-59
2020/12/13 09:15:33;;;;;;;20.93;12.67;;;11.50;99.90;;;11.78;63.42;100651.34;4917126;28;97634;-62
2020/12/13 09:18:02;;;;;;;18.87;12.60;;;11.50;99.90;;;11.80;63.91;100659.22;4909947;28;101573;-60
2020/12/13 09:20:38;;;;;;;22.27;14.40;;;11.60;99.90;;;11.83;64.19;100659.09;4902965;28;97291;-61
2020/12/13 09:23:13;;;;;;;18.00;12.27;;;11.60;99.90;;;11.85;63.57;100662.53;4897233;28;96910;-61
2020/12/13 09:25:42;;;;;;;20.30;12.90;;;11.60;99.90;;;11.84;63.37;100671.38;4917783;28;103555;-61
2020/12/13 09:28:09;;;;;;;20.17;12.27;;;11.60;99.90;;;11.84;62.98;100676.66;4919479;28;97884;-62
2020/12/13 09:30:35;;;;;;;18.63;12.97;;;11.60;99.90;;;11.90;63.26;100679.94;4902824;28;98797;-62
2020/12/13 09:33:02;;;;;;;15.93;11.07;;;11.60;99.90;;;11.87;62.31;100676.56;4929332;28;100552;-62
2020/12/13 09:35:30;;;;;;;16.00;11.73;;;11.60;99.90;;;11.90;62.57;100685.22;4884780;28;100527;-62
2020/12/13 09:38:00;;;;;;;15.83;10.77;;;11.70;99.90;;;11.89;63.06;100685.28;4901571;28;101071;-61
2020/12/13 09:40:27;;;;;;;14.63;11.30;;;11.70;99.90;;;11.89;62.20;100685.28;4898686;28;96957;-61
2020/12/13 09:42:55;;;;;;;16.17;11.47;;;11.70;99.90;;;11.90;62.19;100687.00;4917878;28;99063;-60
2020/12/13 09:45:22;;;;;;;16.30;10.67;;;11.70;99.90;;;11.87;61.64;100687.16;4898504;28;97111;-62
2020/12/13 09:47:48;;;;;;;15.13;10.90;;;11.60;99.90;;;11.88;62.92;100679.16;4930365;28;99327;-61
2020/12/13 09:50:17;;;;;;;16.03;11.37;;;11.60;99.90;;;11.92;62.79;100685.16;4918751;28;96892;-60
2020/12/13 09:52:43;;;;;;;18.43;12.17;;;11.70;99.90;;;11.95;63.16;100690.31;4912462;28;97018;-60
2020/12/13 09:55:09;;;;;;;17.33;12.43;;;11.70;99.90;;;11.97;63.25;100693.75;4899436;28;104254;-61
2020/12/13 09:57:36;;;;;;;16.67;12.13;;;11.70;99.90;;;11.98;63.66;100689.31;4914278;28;104413;-62
2020/12/13 10:00:05;;;;;;;14.17;10.97;;;11.70;99.90;;;11.97;62.93;100695.53;4916040;28;97189;-61
2020/12/13 10:02:31;;;;;;;15.03;11.10;;;11.70;99.90;;;11.96;62.42;100692.03;4933907;28;96964;-61
2020/12/13 10:04:57;;;;;;;17.47;10.23;;;11.70;99.90;;;11.97;61.93;100693.75;4876745;28;99230;-62
2020/12/13 10:10:07;;;;;;;18.63;10.40;;;11.70;99.90;;;12.00;62.82;100693.63;4905693;28;96934;-61
2020/12/13 10:12:32;;;;;;;14.27;10.97;;;11.80;99.90;;;12.01;62.06;100690.09;4896445;28;96995;-61
2020/12/13 10:14:58;;;;;;;14.63;9.57;;;11.80;99.90;;;12.02;62.20;100697.09;4887244;28;99221;-62
2020/12/13 10:17:24;;;;;;;13.10;9.27;;;11.80;99.90;;;12.03;62.20;100704.09;4881837;28;119608;-62